Terminal Aerodrome Forecast
Issued by NWS

Home | Current Version | Previous Version | Text Only | Print | Product List | Glossary On
Versions: 1 2 3 4 5 6 7 8 9 10 11 12 13 14 15 16 17 18
000
FTUS46 KSTO 282300
TAFSCK
TAF
KSCK 282331Z 2900/2924 VRB03KT 5SM HZ SKC
     FM290600 14005KT 4SM BR BKN100
     FM291200 14005KT 6SM -RA OVC030
      TEMPO 2913/2917 2SM RA BKN020=

USA.gov is the U.S. government's official web portal to all federal, state and local government web resources and services.